Time;durP1;ratioP1;P1;durP2;ratioP2;P2;SDS_P1;SDS_P2;PMS_P1;PMS_P2;Temp;Humidity;BMP_temperature;BMP_pressure;BME280_temperature;BME280_humidity;BME280_pressure;Samples;Min_cycle;Max_cycle;Signal;HPM_P1;HPM_P2
2021/01/25 00:00:56;;;;;;;8.40;4.57;;;;;;;;;;4953962;28;20055;-69
2021/01/25 00:03:23;;;;;;;7.70;4.47;;;;;;;;;;4953543;28;20467;-69
2021/01/25 00:05:50;;;;;;;9.85;4.25;;;;;;;;;;4957676;28;20056;-69
2021/01/25 00:08:16;;;;;;;8.27;4.97;;;;;;;;;;4972856;28;20089;-69
2021/01/25 00:10:43;;;;;;;8.98;4.50;;;;;;;;;;4973081;28;20055;-69
2021/01/25 00:13:10;;;;;;;7.90;4.43;;;;;;;;;;4972757;28;20126;-69
2021/01/25 00:15:37;;;;;;;6.10;4.28;;;;;;;;;;4972529;28;20055;-69
2021/01/25 00:18:04;;;;;;;7.55;4.10;;;;;;;;;;4972890;28;20494;-69
2021/01/25 00:20:31;;;;;;;5.72;4.05;;;;;;;;;;4973314;28;20525;-69
2021/01/25 00:22:57;;;;;;;5.80;3.75;;;;;;;;;;4953483;28;20403;-69
2021/01/25 00:25:23;;;;;;;6.53;4.10;;;;;;;;;;4952544;28;20058;-69
2021/01/25 00:27:50;;;;;;;7.15;4.25;;;;;;;;;;4953373;28;20055;-69
2021/01/25 00:30:18;;;;;;;6.72;3.47;;;;;;;;;;4953311;28;20133;-69
2021/01/25 00:32:45;;;;;;;7.28;3.47;;;;;;;;;;4953532;28;20101;-69
2021/01/25 00:35:12;;;;;;;7.35;4.22;;;;;;;;;;4952793;28;20059;-69
2021/01/25 00:37:39;;;;;;;5.63;3.67;;;;;;;;;;4956899;28;20049;-69
2021/01/25 00:40:08;;;;;;;5.63;3.20;;;;;;;;;;4959922;28;20090;-70
2021/01/25 00:42:35;;;;;;;6.40;3.58;;;;;;;;;;4958351;29;20061;-67
2021/01/25 00:45:03;;;;;;;7.22;4.03;;;;;;;;;;4958742;28;20086;-69
2021/01/25 00:47:29;;;;;;;5.72;4.07;;;;;;;;;;4957999;28;20703;-68
2021/01/25 00:49:55;;;;;;;6.93;3.75;;;;;;;;;;4959925;28;20059;-68
2021/01/25 00:52:21;;;;;;;5.85;3.47;;;;;;;;;;4959766;28;20083;-68
2021/01/25 00:54:47;;;;;;;7.88;3.70;;;;;;;;;;4959859;28;20051;-68
2021/01/25 00:57:13;;;;;;;7.40;4.43;;;;;;;;;;4958995;28;20047;-68
2021/01/25 00:59:42;;;;;;;10.13;4.10;;;;;;;;;;4967519;28;20042;-68
2021/01/25 01:02:08;;;;;;;5.55;3.42;;;;;;;;;;4978926;28;20054;-68
2021/01/25 01:04:34;;;;;;;3.55;2.90;;;;;;;;;;4978861;28;20138;-68
2021/01/25 01:07:00;;;;;;;5.18;3.17;;;;;;;;;;4977211;28;20051;-69
2021/01/25 01:09:26;;;;;;;8.50;3.90;;;;;;;;;;4959474;28;20078;-68
2021/01/25 01:11:52;;;;;;;6.13;3.83;;;;;;;;;;4959717;28;20079;-68
2021/01/25 01:14:18;;;;;;;5.25;3.60;;;;;;;;;;4959447;28;20117;-68
2021/01/25 01:16:44;;;;;;;4.72;3.40;;;;;;;;;;4958916;28;20091;-69
2021/01/25 01:19:10;;;;;;;6.55;3.35;;;;;;;;;;4959670;28;20066;-68
2021/01/25 01:21:36;;;;;;;6.25;3.38;;;;;;;;;;4959405;28;20055;-69
2021/01/25 01:24:03;;;;;;;5.75;3.28;;;;;;;;;;4959640;28;20109;-68
2021/01/25 01:26:30;;;;;;;3.95;3.20;;;;;;;;;;4958649;28;20051;-69
2021/01/25 01:28:56;;;;;;;5.68;3.38;;;;;;;;;;4959296;28;20514;-69
2021/01/25 01:31:22;;;;;;;5.18;3.35;;;;;;;;;;4959307;28;20474;-69
2021/01/25 01:33:48;;;;;;;5.45;3.90;;;;;;;;;;4959369;28;20047;-69
2021/01/25 01:36:14;;;;;;;6.03;3.38;;;;;;;;;;4965949;28;20054;-69
2021/01/25 01:38:41;;;;;;;8.18;4.20;;;;;;;;;;4976968;28;20097;-68
2021/01/25 01:41:07;;;;;;;6.20;3.25;;;;;;;;;;4977671;28;20090;-68
2021/01/25 01:43:33;;;;;;;4.18;3.10;;;;;;;;;;4977225;28;20050;-68
2021/01/25 01:45:59;;;;;;;6.00;3.50;;;;;;;;;;4977985;28;20494;-68
2021/01/25 01:48:25;;;;;;;4.38;3.10;;;;;;;;;;4975174;28;20113;-68
2021/01/25 01:50:52;;;;;;;5.35;3.17;;;;;;;;;;4956988;28;20059;-68
2021/01/25 01:53:19;;;;;;;4.22;2.90;;;;;;;;;;4956188;28;20071;-68
2021/01/25 01:55:45;;;;;;;4.45;3.22;;;;;;;;;;4955482;29;20055;-69
2021/01/25 01:58:11;;;;;;;5.68;3.38;;;;;;;;;;4955388;29;20411;-70
2021/01/25 02:00:37;;;;;;;4.00;2.97;;;;;;;;;;4954784;29;20051;-69
2021/01/25 02:03:04;;;;;;;5.15;3.22;;;;;;;;;;4956785;28;20086;-68
2021/01/25 02:05:30;;;;;;;5.38;3.47;;;;;;;;;;4954052;29;20399;-68
2021/01/25 02:07:56;;;;;;;6.28;3.25;;;;;;;;;;4938575;29;20067;-68
2021/01/25 02:10:22;;;;;;;5.90;3.30;;;;;;;;;;4954825;29;20553;-68
2021/01/25 02:12:49;;;;;;;6.00;3.15;;;;;;;;;;4954784;29;20502;-69
2021/01/25 02:15:17;;;;;;;5.45;2.97;;;;;;;;;;4938211;29;20082;-69
2021/01/25 02:17:43;;;;;;;4.38;2.58;;;;;;;;;;4954444;28;20054;-69
2021/01/25 02:20:34;;;;;;;5.53;3.55;;;;;;;;;;4973794;28;20525;-68
2021/01/25 02:23:21;;;;;;;4.75;3.22;;;;;;;;;;4975092;28;20142;-68
2021/01/25 02:25:56;;;;;;;6.63;3.30;;;;;;;;;;4974201;28;20050;-68
2021/01/25 02:28:22;;;;;;;4.53;3.00;;;;;;;;;;4973662;28;20097;-68
2021/01/25 02:30:48;;;;;;;5.93;2.83;;;;;;;;;;4974640;28;20486;-68
2021/01/25 02:33:14;;;;;;;4.93;3.20;;;;;;;;;;4973677;28;20051;-68
2021/01/25 02:35:40;;;;;;;7.15;3.05;;;;;;;;;;4956744;28;20061;-68
2021/01/25 02:38:08;;;;;;;3.67;2.50;;;;;;;;;;4972804;28;20051;-68
2021/01/25 02:40:34;;;;;;;4.65;2.97;;;;;;;;;;4957581;28;20117;-68
2021/01/25 02:43:00;;;;;;;4.13;2.80;;;;;;;;;;4957326;28;20498;-69
2021/01/25 02:45:26;;;;;;;4.40;2.83;;;;;;;;;;4956609;28;20050;-69
2021/01/25 02:47:52;;;;;;;6.65;2.97;;;;;;;;;;4957402;28;20114;-68
2021/01/25 02:50:19;;;;;;;3.10;2.58;;;;;;;;;;4957097;28;20555;-68
2021/01/25 02:52:45;;;;;;;5.15;3.08;;;;;;;;;;4973384;28;20105;-68
2021/01/25 02:55:11;;;;;;;5.40;3.30;;;;;;;;;;4974013;28;20066;-68
2021/01/25 02:57:37;;;;;;;4.38;3.40;;;;;;;;;;4973919;28;20051;-68
2021/01/25 03:00:06;;;;;;;7.22;3.40;;;;;;;;;;4974125;28;20474;-68
2021/01/25 03:02:32;;;;;;;4.45;2.85;;;;;;;;;;4974003;28;20051;-70
2021/01/25 03:05:04;;;;;;;4.55;3.00;;;;;;;;;;4957112;28;20047;-68
2021/01/25 03:07:30;;;;;;;4.35;3.05;;;;;;;;;;4946507;29;20055;-68
2021/01/25 03:10:00;;;;;;;4.82;3.20;;;;;;;;;;4954821;28;20590;-68
2021/01/25 03:12:28;;;;;;;5.35;2.97;;;;;;;;;;4953323;29;20083;-69
2021/01/25 03:14:54;;;;;;;7.05;3.15;;;;;;;;;;4953619;29;20421;-69
2021/01/25 03:17:21;;;;;;;6.22;3.83;;;;;;;;;;4952854;29;20125;-69
2021/01/25 03:19:47;;;;;;;4.18;2.30;;;;;;;;;;4953563;29;20137;-68
2021/01/25 03:22:13;;;;;;;5.82;3.25;;;;;;;;;;4954549;29;20055;-68
2021/01/25 03:24:39;;;;;;;4.25;3.33;;;;;;;;;;4954212;29;20047;-68
2021/01/25 03:27:05;;;;;;;3.58;2.67;;;;;;;;;;4953981;28;20059;-68
2021/01/25 03:29:32;;;;;;;3.95;2.85;;;;;;;;;;4954459;28;20047;-69
2021/01/25 03:31:58;;;;;;;6.82;3.10;;;;;;;;;;4953333;29;20462;-68
2021/01/25 03:34:25;;;;;;;6.57;3.20;;;;;;;;;;4962507;28;20051;-68
2021/01/25 03:36:51;;;;;;;5.35;3.38;;;;;;;;;;4972145;28;20090;-69
2021/01/25 03:39:17;;;;;;;6.90;3.95;;;;;;;;;;4971642;28;20137;-70
2021/01/25 03:41:43;;;;;;;6.18;3.50;;;;;;;;;;4972681;28;20553;-69
2021/01/25 03:44:09;;;;;;;4.45;3.28;;;;;;;;;;4971324;28;20047;-68
2021/01/25 03:46:35;;;;;;;4.40;3.22;;;;;;;;;;4971876;28;20731;-68
2021/01/25 03:49:01;;;;;;;4.28;3.33;;;;;;;;;;4972565;28;20494;-69
2021/01/25 03:51:27;;;;;;;6.30;3.67;;;;;;;;;;4972472;28;20051;-69
2021/01/25 03:53:53;;;;;;;7.65;3.50;;;;;;;;;;4972688;28;20070;-69
2021/01/25 03:56:20;;;;;;;6.30;3.85;;;;;;;;;;4970727;28;20077;-69
2021/01/25 03:58:46;;;;;;;4.90;3.35;;;;;;;;;;4972367;28;20122;-69
2021/01/25 04:01:13;;;;;;;5.78;3.63;;;;;;;;;;4964755;28;20192;-69
2021/01/25 04:03:39;;;;;;;5.10;3.85;;;;;;;;;;4952001;29;20662;-68
2021/01/25 04:06:05;;;;;;;4.68;3.20;;;;;;;;;;4952467;28;20263;-68
2021/01/25 04:08:31;;;;;;;6.88;4.07;;;;;;;;;;4953099;28;20106;-68
2021/01/25 04:10:57;;;;;;;6.55;3.50;;;;;;;;;;4971382;28;20055;-68
2021/01/25 04:13:23;;;;;;;6.40;3.65;;;;;;;;;;4971611;28;20532;-68
2021/01/25 04:15:49;;;;;;;5.20;3.25;;;;;;;;;;4955714;28;20111;-69
2021/01/25 04:18:16;;;;;;;7.32;4.30;;;;;;;;;;4952835;28;20518;-68
2021/01/25 04:20:42;;;;;;;5.28;3.88;;;;;;;;;;4952876;28;20059;-69
2021/01/25 04:23:08;;;;;;;5.22;3.65;;;;;;;;;;4952841;28;20414;-69
2021/01/25 04:25:34;;;;;;;5.88;3.92;;;;;;;;;;4952181;28;20483;-69
2021/01/25 04:28:00;;;;;;;6.07;4.47;;;;;;;;;;4956974;28;20141;-69
2021/01/25 04:30:27;;;;;;;8.40;4.53;;;;;;;;;;4972019;28;20057;-68
2021/01/25 04:32:53;;;;;;;6.72;4.28;;;;;;;;;;4971975;28;20486;-68
2021/01/25 04:35:19;;;;;;;7.30;4.57;;;;;;;;;;4949437;28;637446;-69
2021/01/25 04:37:45;;;;;;;6.30;4.30;;;;;;;;;;4972616;28;20113;-68
2021/01/25 04:40:11;;;;;;;7.78;4.50;;;;;;;;;;4972841;28;20055;-68
2021/01/25 04:42:38;;;;;;;7.63;4.93;;;;;;;;;;4958818;28;20110;-68
2021/01/25 04:45:06;;;;;;;6.78;4.80;;;;;;;;;;4951985;29;20077;-68
2021/01/25 04:47:32;;;;;;;6.43;4.35;;;;;;;;;;4951851;29;20051;-68
2021/01/25 04:49:58;;;;;;;5.78;4.22;;;;;;;;;;4953474;29;20423;-68
2021/01/25 04:52:25;;;;;;;8.48;4.47;;;;;;;;;;4936074;29;20054;-68
2021/01/25 04:54:51;;;;;;;7.85;4.78;;;;;;;;;;4940345;28;20094;-68
2021/01/25 04:57:17;;;;;;;7.60;5.13;;;;;;;;;;4954349;28;20101;-68
2021/01/25 04:59:44;;;;;;;7.45;4.95;;;;;;;;;;4955274;28;20051;-68
2021/01/25 05:02:11;;;;;;;6.63;4.65;;;;;;;;;;4972598;28;20050;-68
2021/01/25 05:04:37;;;;;;;7.47;5.22;;;;;;;;;;4972311;28;20055;-68
2021/01/25 05:07:04;;;;;;;7.18;5.30;;;;;;;;;;4972202;28;20046;-69
2021/01/25 05:09:30;;;;;;;6.68;4.85;;;;;;;;;;4958512;28;20487;-68
2021/01/25 05:11:57;;;;;;;8.07;5.25;;;;;;;;;;4970748;28;20572;-68
2021/01/25 05:14:24;;;;;;;7.38;4.60;;;;;;;;;;4972478;28;20520;-68
2021/01/25 05:16:50;;;;;;;6.70;4.93;;;;;;;;;;4971910;28;20395;-68
2021/01/25 05:19:16;;;;;;;5.47;4.63;;;;;;;;;;4972307;28;20062;-68
2021/01/25 05:21:44;;;;;;;9.05;5.50;;;;;;;;;;4972573;28;20117;-68
2021/01/25 05:24:11;;;;;;;7.05;5.03;;;;;;;;;;4974914;28;20047;-69
2021/01/25 05:26:50;;;;;;;6.85;4.97;;;;;;;;;;4975311;28;20418;-69
2021/01/25 05:29:25;;;;;;;8.68;5.70;;;;;;;;;;4975866;28;20116;-69
2021/01/25 05:31:52;;;;;;;9.68;5.32;;;;;;;;;;4975699;28;20403;-69
2021/01/25 05:34:19;;;;;;;6.45;4.90;;;;;;;;;;4974520;28;20498;-68
2021/01/25 05:36:45;;;;;;;9.27;6.30;;;;;;;;;;4976547;28;20490;-68
2021/01/25 05:39:15;;;;;;;10.85;5.88;;;;;;;;;;4976390;28;20054;-69
2021/01/25 05:41:54;;;;;;;8.05;6.22;;;;;;;;;;4974521;28;20110;-69
2021/01/25 05:44:21;;;;;;;8.95;5.78;;;;;;;;;;4975562;28;20062;-68
2021/01/25 05:46:47;;;;;;;9.63;6.20;;;;;;;;;;4975223;28;20051;-69
2021/01/25 05:49:13;;;;;;;10.45;6.25;;;;;;;;;;4975589;28;20055;-69
2021/01/25 05:51:40;;;;;;;10.95;6.50;;;;;;;;;;4974139;28;20125;-68
2021/01/25 05:54:06;;;;;;;8.60;6.53;;;;;;;;;;4974492;28;20050;-68
2021/01/25 05:56:33;;;;;;;10.75;6.35;;;;;;;;;;4973619;28;20395;-68
2021/01/25 05:58:59;;;;;;;10.10;6.85;;;;;;;;;;4975620;28;20430;-68
2021/01/25 06:01:25;;;;;;;8.75;6.30;;;;;;;;;;4975300;28;20055;-68
2021/01/25 06:03:51;;;;;;;15.88;9.00;;;;;;;;;;4974179;28;20055;-68
2021/01/25 06:06:24;;;;;;;13.93;8.57;;;;;;;;;;4968069;28;20051;-68
2021/01/25 06:08:58;;;;;;;;;;;;;;;;;;4939753;29;20110;-69
2021/01/25 06:11:28;;;;;;;11.40;7.03;;;;;;;;;;4956018;28;19922;-69
2021/01/25 06:13:59;;;;;;;8.98;6.50;;;;;;;;;;4954254;29;20066;-68
2021/01/25 06:16:26;;;;;;;9.70;6.97;;;;;;;;;;4953853;29;20048;-70
2021/01/25 06:19:08;;;;;;;13.48;7.38;;;;;;;;;;4955799;28;20058;-69
2021/01/25 06:21:38;;;;;;;15.15;9.45;;;;;;;;;;4954580;29;20059;-71
2021/01/25 06:24:06;;;;;;;12.70;8.68;;;;;;;;;;4953332;28;20043;-71
2021/01/25 06:26:32;;;;;;;14.35;9.48;;;;;;;;;;4973182;28;20097;-69
2021/01/25 06:29:08;;;;;;;15.18;8.30;;;;;;;;;;4973669;28;20470;-69
2021/01/25 06:31:39;;;;;;;14.70;8.57;;;;;;;;;;4974729;28;20054;-69
2021/01/25 06:34:15;;;;;;;12.02;8.30;;;;;;;;;;4955328;28;20059;-68
2021/01/25 06:36:41;;;;;;;13.07;8.38;;;;;;;;;;4953392;29;20470;-70
2021/01/25 06:39:08;;;;;;;10.60;7.55;;;;;;;;;;4938199;29;20082;-69
2021/01/25 06:41:36;;;;;;;12.05;8.35;;;;;;;;;;5029281;23;20107;-70
2021/01/25 06:44:02;;;;;;;10.48;7.53;;;;;;;;;;5015755;28;20495;-71
2021/01/25 06:46:31;;;;;;;14.30;9.18;;;;;;;;;;5015073;28;20049;-71
2021/01/25 06:48:57;;;;;;;15.50;8.38;;;;;;;;;;5032274;28;20049;-71
2021/01/25 06:51:23;;;;;;;16.85;8.85;;;;;;;;;;5015703;28;20050;-71
2021/01/25 06:53:49;;;;;;;15.18;8.43;;;;;;;;;;5015018;28;20042;-70
2021/01/25 06:56:16;;;;;;;18.10;8.93;;;;;;;;;;5022259;28;20180;-71
2021/01/25 06:58:49;;;;;;;11.00;8.23;;;;;;;;;;5005077;28;20053;-70
2021/01/25 07:01:20;;;;;;;11.15;7.93;;;;;;;;;;5005317;28;20516;-70
2021/01/25 07:03:56;;;;;;;16.52;8.52;;;;;;;;;;5016524;28;20052;-70
2021/01/25 07:06:47;;;;;;;15.38;8.88;;;;;;;;;;4996940;28;20133;-70
2021/01/25 07:09:30;;;;;;;12.07;8.00;;;;;;;;;;5010461;28;20046;-70
2021/01/25 07:12:00;;;;;;;;;;;;;;;;;;5012625;28;20108;-73
2021/01/25 07:14:29;;;;;;;13.52;8.65;;;;;;;;;;5032267;28;19921;-73
2021/01/25 07:16:56;;;;;;;15.55;9.25;;;;;;;;;;5014437;28;20303;-73
2021/01/25 07:19:24;;;;;;;12.75;9.20;;;;;;;;;;5031030;28;20053;-73
2021/01/25 07:21:52;;;;;;;13.60;8.85;;;;;;;;;;5030952;28;20060;-72
2021/01/25 07:24:27;;;;;;;17.65;9.10;;;;;;;;;;5030945;28;20111;-73
2021/01/25 07:26:58;;;;;;;13.88;9.25;;;;;;;;;;5018709;28;20054;-72
2021/01/25 07:29:25;;;;;;;14.45;9.18;;;;;;;;;;5008838;28;20054;-72
2021/01/25 07:31:52;;;;;;;14.48;8.77;;;;;;;;;;5009665;28;20116;-72
2021/01/25 07:34:19;;;;;;;18.85;9.95;;;;;;;;;;5009450;28;20057;-73
2021/01/25 07:36:45;;;;;;;16.48;9.48;;;;;;;;;;5009048;28;20092;-73
2021/01/25 07:39:13;;;;;;;16.35;9.73;;;;;;;;;;5009371;28;20108;-73
2021/01/25 07:41:40;;;;;;;18.35;9.95;;;;;;;;;;5008765;28;20530;-73
2021/01/25 07:44:07;;;;;;;13.55;9.55;;;;;;;;;;5009191;28;20054;-73
2021/01/25 07:46:33;;;;;;;17.33;10.68;;;;;;;;;;5007606;28;20107;-70
2021/01/25 07:49:00;;;;;;;18.25;10.88;;;;;;;;;;4977171;28;20427;-70
2021/01/25 07:51:33;;;;;;;17.40;10.80;;;;;;;;;;5009183;28;20050;-70
2021/01/25 07:53:59;;;;;;;21.13;11.00;;;;;;;;;;5023957;28;20096;-70
2021/01/25 07:56:26;;;;;;;19.90;11.52;;;;;;;;;;5027800;28;20045;-70
2021/01/25 07:59:04;;;;;;;21.15;12.70;;;;;;;;;;5012286;28;20111;-70
2021/01/25 08:01:56;;;;;;;18.73;10.80;;;;;;;;;;5012424;28;20561;-70
2021/01/25 08:04:25;;;;;;;14.52;10.35;;;;;;;;;;5028126;28;20160;-70
2021/01/25 08:06:52;;;;;;;16.65;10.13;;;;;;;;;;5011707;28;20057;-71
2021/01/25 08:09:20;;;;;;;16.98;9.93;;;;;;;;;;5011489;28;20057;-70
2021/01/25 08:11:46;;;;;;;15.82;9.85;;;;;;;;;;5028409;28;20127;-73
2021/01/25 08:14:47;;;;;;;19.15;11.18;;;;;;;;;;5001288;28;20049;-72
2021/01/25 08:17:20;;;;;;;18.25;11.02;;;;;;;;;;5012979;28;20049;-73
2021/01/25 08:19:51;;;;;;;19.75;10.65;;;;;;;;;;5012762;28;20057;-73
2021/01/25 08:22:19;;;;;;;19.48;11.57;;;;;;;;;;4978100;28;20041;-74
2021/01/25 08:24:56;;;;;;;23.85;12.25;;;;;;;;;;5000787;28;20155;-75
2021/01/25 08:27:23;;;;;;;23.80;13.15;;;;;;;;;;5000041;28;20065;-76
2021/01/25 08:30:01;;;;;;;23.55;13.02;;;;;;;;;;5002076;28;20526;-75
2021/01/25 08:32:31;;;;;;;23.67;12.77;;;;;;;;;;5019591;28;20079;-76
2021/01/25 08:35:00;;;;;;;20.98;11.38;;;;;;;;;;5001922;28;20646;-76
2021/01/25 08:37:28;;;;;;;23.55;11.68;;;;;;;;;;5001550;28;20046;-74
2021/01/25 08:39:56;;;;;;;18.15;12.45;;;;;;;;;;5001320;28;20467;-74
2021/01/25 08:42:25;;;;;;;16.00;10.88;;;;;;;;;;5018324;28;20042;-75
2021/01/25 08:45:00;;;;;;;21.67;10.65;;;;;;;;;;5015608;28;20057;-75
2021/01/25 08:47:30;;;;;;;19.92;11.85;;;;;;;;;;5002377;28;20137;-75
2021/01/25 08:49:57;;;;;;;20.63;10.60;;;;;;;;;;5003200;28;20490;-74
2021/01/25 08:52:29;;;;;;;19.75;11.75;;;;;;;;;;4999970;28;20046;-78
2021/01/25 08:55:09;;;;;;;21.00;10.67;;;;;;;;;;4995358;28;20050;-79
2021/01/25 08:57:38;;;;;;;21.65;12.00;;;;;;;;;;5019049;28;20307;-79
2021/01/25 09:00:16;;;;;;;24.35;11.80;;;;;;;;;;4996990;28;20045;-79
2021/01/25 09:02:44;;;;;;;21.60;11.95;;;;;;;;;;5028810;28;20355;-74
2021/01/25 09:05:13;;;;;;;24.02;11.25;;;;;;;;;;5026910;28;20535;-76
2021/01/25 09:07:39;;;;;;;22.60;11.35;;;;;;;;;;5012056;28;20053;-75
2021/01/25 09:10:08;;;;;;;21.42;11.35;;;;;;;;;;5006604;28;20053;-76
2021/01/25 09:12:36;;;;;;;21.38;12.20;;;;;;;;;;5020361;28;20076;-76
2021/01/25 09:15:08;;;;;;;21.05;11.65;;;;;;;;;;5005828;28;20046;-78
2021/01/25 09:17:36;;;;;;;19.73;12.02;;;;;;;;;;5021715;28;20053;-74
2021/01/25 09:20:04;;;;;;;27.38;13.68;;;;;;;;;;5006760;28;20065;-77
2021/01/25 09:22:32;;;;;;;22.50;11.15;;;;;;;;;;5020801;28;20058;-73
2021/01/25 09:24:59;;;;;;;17.23;11.77;;;;;;;;;;5003668;28;20112;-76
2021/01/25 09:27:25;;;;;;;26.40;13.45;;;;;;;;;;5018133;28;20077;-77
2021/01/25 09:29:52;;;;;;;22.38;11.90;;;;;;;;;;5004807;28;20583;-74
2021/01/25 09:32:19;;;;;;;21.95;11.68;;;;;;;;;;4988055;28;20160;-75
2021/01/25 09:34:46;;;;;;;23.63;11.63;;;;;;;;;;5017276;28;20440;-77
2021/01/25 09:37:13;;;;;;;18.60;11.27;;;;;;;;;;5004891;28;20056;-75
2021/01/25 09:39:39;;;;;;;21.10;12.50;;;;;;;;;;5019073;28;20626;-78
2021/01/25 09:42:07;;;;;;;19.88;12.55;;;;;;;;;;5018226;28;20045;-75
2021/01/25 09:44:38;;;;;;;18.80;12.23;;;;;;;;;;5005534;28;20050;-77
2021/01/25 09:47:07;;;;;;;;;;;;;;;;;;5032970;28;20062;-77
2021/01/25 09:49:34;;;;;;;18.15;11.07;;;;;;;;;;5020742;28;20048;-76
2021/01/25 09:52:00;;;;;;;19.98;11.55;;;;;;;;;;5004417;28;20420;-77
2021/01/25 09:54:27;;;;;;;15.07;11.10;;;;;;;;;;5003592;28;20054;-76
2021/01/25 09:56:54;;;;;;;20.13;12.63;;;;;;;;;;5020262;28;20088;-78
2021/01/25 09:59:20;;;;;;;20.50;12.57;;;;;;;;;;5004943;28;20513;-76
2021/01/25 10:01:47;;;;;;;17.38;11.27;;;;;;;;;;5019998;28;20057;-75
2021/01/25 10:04:14;;;;;;;15.13;10.40;;;;;;;;;;5018654;28;20519;-76
2021/01/25 10:06:41;;;;;;;15.20;9.70;;;;;;;;;;5003302;28;20579;-78
2021/01/25 10:09:07;;;;;;;20.48;10.85;;;;;;;;;;5019330;28;20081;-76
2021/01/25 10:11:35;;;;;;;15.82;10.75;;;;;;;;;;4982987;28;20046;-76
2021/01/25 10:14:02;;;;;;;15.88;10.48;;;;;;;;;;5005900;28;20455;-77
2021/01/25 10:16:28;;;;;;;17.10;10.70;;;;;;;;;;5009623;28;20511;-76
2021/01/25 10:18:54;;;;;;;16.08;11.07;;;;;;;;;;5006986;28;20050;-76
2021/01/25 10:21:23;;;;;;;16.38;10.63;;;;;;;;;;5018221;28;20066;-76
2021/01/25 10:23:54;;;;;;;18.17;10.07;;;;;;;;;;5018148;28;20524;-76
2021/01/25 10:26:20;;;;;;;16.08;10.43;;;;;;;;;;5003798;28;20058;-78
2021/01/25 10:28:48;;;;;;;13.45;9.40;;;;;;;;;;5006180;28;20053;-77
2021/01/25 10:31:15;;;;;;;16.20;9.88;;;;;;;;;;5022422;28;20557;-76
2021/01/25 10:33:41;;;;;;;15.77;9.90;;;;;;;;;;4984273;28;20056;-77
2021/01/25 10:43:52;;;;;;;22.00;11.85;;;;;;;;;;5019108;28;20419;-76
2021/01/25 10:46:18;;;;;;;15.57;10.32;;;;;;;;;;5020838;28;20064;-77
2021/01/25 10:48:45;;;;;;;16.60;11.38;;;;;;;;;;5003600;28;20436;-76
2021/01/25 10:51:14;;;;;;;17.65;10.57;;;;;;;;;;5020353;28;20049;-85
2021/01/25 10:53:41;;;;;;;16.33;9.52;;;;;;;;;;5005225;28;20056;-79
2021/01/25 10:56:42;;;;;;;11.02;7.25;;;;;;;;;;4987575;28;20076;-83
2021/01/25 10:59:14;;;;;;;17.45;7.43;;;;;;;;;;5000778;28;20054;-77
2021/01/25 11:01:40;;;;;;;11.07;7.22;;;;;;;;;;5009579;28;20049;-78
2021/01/25 11:04:11;;;;;;;10.82;6.95;;;;;;;;;;5010194;28;20096;-77
2021/01/25 11:07:15;;;;;;;13.73;7.63;;;;;;;;;;5016879;28;20050;-77
2021/01/25 11:09:42;;;;;;;18.15;9.90;;;;;;;;;;5005783;28;20045;-76
2021/01/25 11:12:09;;;;;;;11.57;7.30;;;;;;;;;;4987461;28;20049;-77
2021/01/25 11:14:36;;;;;;;13.23;7.28;;;;;;;;;;4994161;28;20053;-78
2021/01/25 11:17:43;;;;;;;13.65;8.25;;;;;;;;;;4997249;28;20057;-82
2021/01/25 11:20:32;;;;;;;11.30;7.65;;;;;;;;;;5016357;28;20056;-81
2021/01/25 11:22:58;;;;;;;11.50;7.53;;;;;;;;;;4987600;28;20763;-81
2021/01/25 11:37:15;;;;;;;11.95;8.25;;;;;;;;;;5028304;28;20063;-80
2021/01/25 11:40:50;;;;;;;12.60;7.65;;;;;;;;;;4980992;28;20726;-81
2021/01/25 11:44:30;;;;;;;13.52;7.88;;;;;;;;;;4961426;28;20119;-81
2021/01/25 11:47:11;;;;;;;14.05;8.10;;;;;;;;;;4953542;28;20114;-81
2021/01/25 11:49:38;;;;;;;14.05;7.78;;;;;;;;;;4968099;28;20050;-76
2021/01/25 11:52:04;;;;;;;7.65;5.43;;;;;;;;;;4993017;28;20088;-76
2021/01/25 11:55:09;;;;;;;8.88;5.47;;;;;;;;;;5021522;28;20053;-78
2021/01/25 11:57:45;;;;;;;10.00;6.47;;;;;;;;;;4999679;28;20060;-78
2021/01/25 12:00:17;;;;;;;7.53;3.95;;;;;;;;;;5010034;28;20136;-76
2021/01/25 12:02:44;;;;;;;6.18;4.70;;;;;;;;;;5005013;28;20049;-77
2021/01/25 12:05:11;;;;;;;8.52;4.75;;;;;;;;;;4986378;28;20056;-75
2021/01/25 12:07:47;;;;;;;6.45;4.07;;;;;;;;;;5004684;28;20543;-78
2021/01/25 12:10:13;;;;;;;7.68;4.68;;;;;;;;;;5022402;28;20053;-78
2021/01/25 12:12:41;;;;;;;6.68;3.50;;;;;;;;;;5003583;28;20045;-76
2021/01/25 12:23:08;;;;;;;2.28;1.70;;;;;;;;;;5020899;28;20107;-80
2021/01/25 12:25:35;;;;;;;3.42;1.50;;;;;;;;;;5019296;28;20095;-77
2021/01/25 12:28:03;;;;;;;1.20;1.00;;;;;;;;;;4992652;28;20049;-75
2021/01/25 12:30:43;;;;;;;1.13;1.02;;;;;;;;;;5000694;28;20501;-76
2021/01/25 12:33:14;;;;;;;3.30;0.88;;;;;;;;;;4999730;28;20470;-76
2021/01/25 12:35:42;;;;;;;2.22;1.00;;;;;;;;;;5001263;28;20115;-74
2021/01/25 12:38:09;;;;;;;2.65;1.20;;;;;;;;;;5018308;28;20136;-77
2021/01/25 12:40:51;;;;;;;1.52;1.05;;;;;;;;;;4993360;28;20053;-81
2021/01/25 12:43:17;;;;;;;1.10;0.80;;;;;;;;;;5039876;22;20050;-71
2021/01/25 12:45:44;;;;;;;2.55;0.80;;;;;;;;;;5000475;28;20460;-71
2021/01/25 12:48:10;;;;;;;1.23;0.88;;;;;;;;;;5001392;28;20104;-72
2021/01/25 12:50:37;;;;;;;1.38;1.00;;;;;;;;;;5000132;28;20080;-72
2021/01/25 12:53:04;;;;;;;1.58;1.33;;;;;;;;;;4999733;28;20054;-72
2021/01/25 12:55:32;;;;;;;1.20;0.90;;;;;;;;;;4997412;28;20074;-72
2021/01/25 12:57:58;;;;;;;0.73;0.60;;;;;;;;;;4996857;28;20054;-71
2021/01/25 13:00:28;;;;;;;1.95;1.10;;;;;;;;;;4997619;28;20489;-72
2021/01/25 13:02:55;;;;;;;0.70;0.70;;;;;;;;;;5001328;28;20445;-72
2021/01/25 13:05:22;;;;;;;1.20;1.05;;;;;;;;;;4998456;28;20068;-72
2021/01/25 13:07:49;;;;;;;0.90;0.90;;;;;;;;;;4999343;28;20054;-72
2021/01/25 13:10:17;;;;;;;0.40;0.40;;;;;;;;;;4992020;28;20573;-72
2021/01/25 13:12:44;;;;;;;1.83;0.80;;;;;;;;;;4955986;28;20059;-72
2021/01/25 13:15:15;;;;;;;1.45;0.80;;;;;;;;;;4971187;28;20047;-72
2021/01/25 13:17:43;;;;;;;1.10;1.00;;;;;;;;;;4954026;28;20086;-72
2021/01/25 13:20:13;;;;;;;1.33;0.63;;;;;;;;;;4970416;28;20050;-71
2021/01/25 13:22:39;;;;;;;0.90;0.70;;;;;;;;;;4972268;28;20133;-71
2021/01/25 13:25:06;;;;;;;1.00;0.70;;;;;;;;;;4972259;28;20111;-71
2021/01/25 13:27:33;;;;;;;1.88;0.90;;;;;;;;;;4970385;28;20051;-70
2021/01/25 13:29:59;;;;;;;0.73;0.70;;;;;;;;;;4971309;28;20054;-72
2021/01/25 13:32:25;;;;;;;1.00;0.90;;;;;;;;;;4970057;28;20050;-72
2021/01/25 13:34:52;;;;;;;0.95;0.88;;;;;;;;;;4979152;28;20050;-71
2021/01/25 13:37:19;;;;;;;1.05;0.95;;;;;;;;;;4993917;28;20074;-71
2021/01/25 13:39:46;;;;;;;1.35;0.90;;;;;;;;;;5000303;28;20046;-73
2021/01/25 13:42:30;;;;;;;2.60;1.23;;;;;;;;;;4997548;28;20054;-71
2021/01/25 13:44:57;;;;;;;1.40;1.30;;;;;;;;;;5001666;28;20508;-71
2021/01/25 13:47:23;;;;;;;1.13;1.00;;;;;;;;;;5000009;28;20058;-72
2021/01/25 13:49:50;;;;;;;1.77;1.33;;;;;;;;;;4997257;28;20089;-72
2021/01/25 13:52:16;;;;;;;3.03;1.80;;;;;;;;;;5005085;28;20132;-73
2021/01/25 13:54:43;;;;;;;2.72;1.80;;;;;;;;;;4967277;28;20055;-72
2021/01/25 13:57:10;;;;;;;4.20;2.20;;;;;;;;;;4974819;28;20430;-74
2021/01/25 13:59:36;;;;;;;3.63;2.03;;;;;;;;;;4961912;28;20055;-72
2021/01/25 14:02:02;;;;;;;3.17;1.90;;;;;;;;;;4983223;28;20058;-73
2021/01/25 14:04:30;;;;;;;1.80;1.70;;;;;;;;;;4983383;28;20042;-73
2021/01/25 14:06:57;;;;;;;1.77;1.55;;;;;;;;;;4984220;28;20070;-72
2021/01/25 14:09:25;;;;;;;1.75;1.63;;;;;;;;;;4978821;28;20055;-73
2021/01/25 14:11:51;;;;;;;2.85;2.00;;;;;;;;;;4984664;28;20453;-73
2021/01/25 14:14:18;;;;;;;2.78;2.55;;;;;;;;;;4983740;28;20053;-70
2021/01/25 14:16:44;;;;;;;2.95;1.90;;;;;;;;;;4983183;28;20089;-71
2021/01/25 14:19:12;;;;;;;2.70;2.40;;;;;;;;;;4982764;28;20054;-69
2021/01/25 14:21:39;;;;;;;3.47;2.30;;;;;;;;;;4981833;28;20053;-70
2021/01/25 14:24:06;;;;;;;3.45;2.65;;;;;;;;;;4983590;28;20097;-69
2021/01/25 14:26:32;;;;;;;4.03;2.17;;;;;;;;;;4983741;28;20513;-69
2021/01/25 14:28:58;;;;;;;5.07;3.25;;;;;;;;;;4983126;28;20584;-69
2021/01/25 14:31:26;;;;;;;2.65;2.40;;;;;;;;;;4982349;28;20561;-69
2021/01/25 14:33:52;;;;;;;3.15;2.60;;;;;;;;;;4985606;28;20058;-69
2021/01/25 14:36:21;;;;;;;3.60;2.92;;;;;;;;;;4982410;28;20204;-69
2021/01/25 14:38:51;;;;;;;5.45;3.35;;;;;;;;;;4980855;28;20125;-70
2021/01/25 14:41:21;;;;;;;3.90;3.33;;;;;;;;;;4985779;28;20108;-69
2021/01/25 14:43:51;;;;;;;3.58;2.83;;;;;;;;;;4983469;28;20112;-68
2021/01/25 14:46:18;;;;;;;4.55;3.60;;;;;;;;;;4984344;28;20054;-70
2021/01/25 14:48:45;;;;;;;4.22;3.80;;;;;;;;;;4982820;28;20105;-74
2021/01/25 14:51:11;;;;;;;6.40;3.72;;;;;;;;;;4978810;28;20069;-72
2021/01/25 14:53:38;;;;;;;3.60;3.25;;;;;;;;;;4983185;28;20046;-72
2021/01/25 14:56:04;;;;;;;5.25;4.18;;;;;;;;;;4982629;28;20054;-72
2021/01/25 14:58:31;;;;;;;5.13;3.80;;;;;;;;;;4984214;28;20065;-70
2021/01/25 15:00:58;;;;;;;5.53;4.00;;;;;;;;;;4984224;28;20050;-70
2021/01/25 15:03:25;;;;;;;4.57;4.18;;;;;;;;;;4980454;28;20097;-70
2021/01/25 15:05:52;;;;;;;5.07;4.20;;;;;;;;;;4980359;28;20054;-70
2021/01/25 15:08:18;;;;;;;5.57;4.38;;;;;;;;;;4980142;28;20103;-70
2021/01/25 15:10:45;;;;;;;6.60;4.45;;;;;;;;;;4982857;28;20137;-70
2021/01/25 15:13:12;;;;;;;5.13;4.20;;;;;;;;;;4984895;28;20137;-70